EGAA/BFS METAR and TAF weather

Enter ICAO airport designator
Station Type Date Time Source
EGAA METAR 2021/03/06 04:20 UTC NOAA

EGAA 060420Z AUTO 21004KT 9999 OVC032/// 02/M01 Q1034


Station Type Date Time Source
EGAA Decoded METAR 2021/03/06 04:20 UTC NOAA

Belfast / Aldergrove Airport, United Kingdom (EGAA) 54-39N 006-13W 0M
Mar 05, 2021 - 11:20 PM EST / 2021.03.06 0420 UTC
Wind: from the SSW (210 degrees) at 5 MPH (4 KT):0
Visibility: greater than 7 mile(s):0
Sky conditions: overcast
Temperature: 35 F (2 C)
Windchill: 30 F (-1 C):1
Dew Point: 30 F (-1 C)
Relative Humidity: 80%
Pressure (altimeter): 30.53 in. Hg (1034 hPa)
ob: EGAA 060420Z AUTO 21004KT 9999 OVC032/// 02/M01 Q1034
cycle: 4

Station Type Date Time Source
EGAA TAF 2021/03/05 18:10 UTC NOAA

TAF EGAA 051700Z 0518/0618 14006KT 9999 BKN030
BECMG 0608/0611 23010KT

Example: see airport list